Seiwamaru — JL6203 — position and weather

sailwx.info

Track history (hours):
 
Tides and Currents Weather Stations Pressure Air Temp Water Temp Dewpoint Dewpoint Depression Visibility Wind Speed Wind Dir Waves Ship Positions

Seiwamaru

Last reported at 2018-Feb-19 06:27 UTC. Time now 2018-Feb-19 18:16 UTC.
Position N 41°23' E 140°15'.

Length 71 m; draft 4.6 m.

Type: Ship (hazmat cat B). MMSI: 431500282.

Date/timePositionNaut miles runAvg speedWind from/ knotsBaromVisibWave heightAir tempDewpointWater temp
2018-Feb-19 06:27N 41°23' E 140°15'5 9.7
2018-Feb-19 05:59N 41°25' E 140°20'511.1
2018-Feb-19 05:29N 41°28' E 140°26'511.0
2018-Feb-19 05:00N 41°31' E 140°32'611.7
2018-Feb-19 04:30N 41°35' E 140°38'510.8
2018-Feb-19 04:00N 41°38' E 140°44'510.2
2018-Feb-19 03:30N 41°37' E 140°51'5 9.5
2018-Feb-19 03:00N 41°36' E 140°57'5 9.7
2018-Feb-19 02:30N 41°34' E 141°03'4 8.7
2018-Feb-19 02:00N 41°33' E 141°08'510.1
2018-Feb-19 01:30N 41°31' E 141°15'510.8
2018-Feb-19 01:00N 41°30' E 141°22'510.3
2018-Feb-19 00:30N 41°28' E 141°28'  
2018-Feb-16 11:11N 41°13' E 141°32'1411.9
2018-Feb-16 10:03N 41°27' E 141°31'012.0
2018-Feb-16 10:00N 41°27' E 141°31'612.5
2018-Feb-16 09:30N 41°33' E 141°27'611.7
2018-Feb-16 08:59N 41°38' E 141°22'611.8
2018-Feb-16 08:28N 41°43' E 141°19'612.3
2018-Feb-16 07:59N 41°49' E 141°15'2 0.1
2018-Feb-14 14:25N 41°51' E 141°16'511.5
2018-Feb-14 14:00N 41°46' E 141°14'612.3
2018-Feb-14 13:30N 41°43' E 141°07'613.0
2018-Feb-14 13:00N 41°38' E 141°01'713.3
2018-Feb-14 12:30N 41°35' E 140°53'713.6
2018-Feb-14 12:00N 41°29' E 140°49'612.8
2018-Feb-14 11:30N 41°23' E 140°46'612.6
2018-Feb-14 11:00N 41°17' E 140°45'1312.1
2018-Feb-14 09:57N 41°04' E 140°45'912.4
2018-Feb-14 09:12N 40°55' E 140°46'311.0
2018-Feb-14 08:58N 40°53' E 140°49'2 0.3
2018-Feb-14 03:50N 40°54' E 140°47'2 0.1
2018-Feb-13 08:09N 40°55' E 140°46'310.6
2018-Feb-13 07:49N 40°59' E 140°46'1412.6
2018-Feb-13 06:43N 41°13' E 140°44'312.2
2018-Feb-13 06:28N 41°16' E 140°43'511.3
2018-Feb-13 06:01N 41°20' E 140°40'510.6
2018-Feb-13 05:30N 41°25' E 140°42'611.5
2018-Feb-13 04:59N 41°31' E 140°41'511.5
2018-Feb-13 04:31N 41°37' E 140°41'611.4
2018-Feb-13 04:00N 41°43' E 140°40'510.7
2018-Feb-13 03:30N 41°48' E 140°41'1 2.5
2018-Feb-13 02:59N 41°49' E 140°42'0 0.0
2018-Feb-13 02:29N 41°49' E 140°42'0 0.0
2018-Feb-13 01:59N 41°49' E 140°42'0 0.0
2018-Feb-13 01:26N 41°49' E 140°42'0 0.0
2018-Feb-13 00:50N 41°49' E 140°42'0 0.0
2018-Feb-13 00:26N 41°49' E 140°42'0 0.0
2018-Feb-12 23:59N 41°49' E 140°42'0 0.0
2018-Feb-12 23:29N 41°49' E 140°42'1 2.2
2018-Feb-12 23:00N 41°48' E 140°41'1 1.7
2018-Feb-12 22:30N 41°47' E 140°42'0 0.0
2018-Feb-12 22:00N 41°47' E 140°42'0 0.0
2018-Feb-12 21:30N 41°47' E 140°42'0 0.0
2018-Feb-12 21:00N 41°47' E 140°42'0 0.0
2018-Feb-12 20:30N 41°47' E 140°42'0 0.0
2018-Feb-12 20:00N 41°47' E 140°42'0 0.0
2018-Feb-12 19:30N 41°47' E 140°42'0 0.0
2018-Feb-12 19:00N 41°47' E 140°42'0 0.0
2018-Feb-12 18:30N 41°47' E 140°42'0 0.0
2018-Feb-12 18:00N 41°47' E 140°42'0 0.0
2018-Feb-12 17:30N 41°47' E 140°42'0 0.0
2018-Feb-12 17:00N 41°47' E 140°42'0 0.1
2018-Feb-12 16:30N 41°47' E 140°42'0 0.1
2018-Feb-12 16:00N 41°47' E 140°42'0 0.0
2018-Feb-12 15:30N 41°47' E 140°42'0 0.1
2018-Feb-12 15:00N 41°47' E 140°42'0 0.1
2018-Feb-12 14:30N 41°47' E 140°42'0 0.0
2018-Feb-12 14:00N 41°47' E 140°42'0 0.0
2018-Feb-12 13:30N 41°47' E 140°42'0 0.0
2018-Feb-12 13:00N 41°47' E 140°42'0 0.0
2018-Feb-12 12:30N 41°47' E 140°42'0 0.0
2018-Feb-12 12:00N 41°47' E 140°42'0 0.0
2018-Feb-12 11:30N 41°47' E 140°42'0 0.0
2018-Feb-12 11:00N 41°47' E 140°42'0 0.0
2018-Feb-12 10:30N 41°47' E 140°42'0 0.0
2018-Feb-12 10:00N 41°47' E 140°42'0 0.0
2018-Feb-12 09:30N 41°47' E 140°42'0 0.0
2018-Feb-12 09:00N 41°47' E 140°42'0 0.1
2018-Feb-12 08:30N 41°47' E 140°42'4 7.4
2018-Feb-12 08:00N 41°43' E 140°40'611.4
2018-Feb-12 07:30N 41°38' E 140°39'611.7
2018-Feb-12 07:00N 41°32' E 140°38'611.4
2018-Feb-12 06:30N 41°26' E 140°38'4 8.8
2018-Feb-12 06:00N 41°22' E 140°39'4 7.2
2018-Feb-12 05:28N 41°18' E 140°41'3 7.6
2018-Feb-12 05:00N 41°15' E 140°43'810.0
2018-Feb-12 04:11N 41°07' E 140°44'411.4
2018-Feb-12 03:50N 41°03' E 140°45'511.3
2018-Feb-12 03:25N 40°58' E 140°45'3 0.1
2018-Feb-11 03:16N 40°55' E 140°46'1 3.1
2018-Feb-11 02:59N 40°55' E 140°47'4 0.9
2018-Feb-10 22:55N 40°52' E 140°50'3 5.1
2018-Feb-10 22:23N 40°54' E 140°47'1912.7
2018-Feb-10 20:55N 41°12' E 140°40'3812.5
2018-Feb-10 17:51N 41°31' E 139°56'  
Track history (hours):
 
Tides and Currents Weather Stations Pressure Air Temp Water Temp Dewpoint Dewpoint Depression Visibility Wind Speed Wind Dir Waves Ship Positions

Seiwamaru

Last reported at 2018-Feb-19 06:27 UTC. Time now 2018-Feb-19 18:16 UTC.
Position N 41°23' E 140°15'.

Length 71 m; draft 4.6 m.

Type: Ship (hazmat cat B). MMSI: 431500282.

Date/timePositionNaut miles runAvg speedWind from/ knotsBaromVisibWave heightAir tempDewpointWater temp
2018-Feb-19 06:27N 41°23' E 140°15'5 9.7
2018-Feb-19 05:59N 41°25' E 140°20'511.1
2018-Feb-19 05:29N 41°28' E 140°26'511.0
2018-Feb-19 05:00N 41°31' E 140°32'611.7
2018-Feb-19 04:30N 41°35' E 140°38'510.8
2018-Feb-19 04:00N 41°38' E 140°44'510.2
2018-Feb-19 03:30N 41°37' E 140°51'5 9.5
2018-Feb-19 03:00N 41°36' E 140°57'5 9.7
2018-Feb-19 02:30N 41°34' E 141°03'4 8.7
2018-Feb-19 02:00N 41°33' E 141°08'510.1
2018-Feb-19 01:30N 41°31' E 141°15'510.8
2018-Feb-19 01:00N 41°30' E 141°22'510.3
2018-Feb-19 00:30N 41°28' E 141°28'  
2018-Feb-16 11:11N 41°13' E 141°32'1411.9
2018-Feb-16 10:03N 41°27' E 141°31'012.0
2018-Feb-16 10:00N 41°27' E 141°31'612.5
2018-Feb-16 09:30N 41°33' E 141°27'611.7
2018-Feb-16 08:59N 41°38' E 141°22'611.8
2018-Feb-16 08:28N 41°43' E 141°19'612.3
2018-Feb-16 07:59N 41°49' E 141°15'2 0.1
2018-Feb-14 14:25N 41°51' E 141°16'511.5
2018-Feb-14 14:00N 41°46' E 141°14'612.3
2018-Feb-14 13:30N 41°43' E 141°07'613.0
2018-Feb-14 13:00N 41°38' E 141°01'713.3
2018-Feb-14 12:30N 41°35' E 140°53'713.6
2018-Feb-14 12:00N 41°29' E 140°49'612.8
2018-Feb-14 11:30N 41°23' E 140°46'612.6
2018-Feb-14 11:00N 41°17' E 140°45'1312.1
2018-Feb-14 09:57N 41°04' E 140°45'912.4
2018-Feb-14 09:12N 40°55' E 140°46'311.0
2018-Feb-14 08:58N 40°53' E 140°49'2 0.3
2018-Feb-14 03:50N 40°54' E 140°47'2 0.1
2018-Feb-13 08:09N 40°55' E 140°46'310.6
2018-Feb-13 07:49N 40°59' E 140°46'1412.6
2018-Feb-13 06:43N 41°13' E 140°44'312.2
2018-Feb-13 06:28N 41°16' E 140°43'511.3
2018-Feb-13 06:01N 41°20' E 140°40'510.6
2018-Feb-13 05:30N 41°25' E 140°42'611.5
2018-Feb-13 04:59N 41°31' E 140°41'511.5
2018-Feb-13 04:31N 41°37' E 140°41'611.4
2018-Feb-13 04:00N 41°43' E 140°40'510.7
2018-Feb-13 03:30N 41°48' E 140°41'1 2.5
2018-Feb-13 02:59N 41°49' E 140°42'0 0.0
2018-Feb-13 02:29N 41°49' E 140°42'0 0.0
2018-Feb-13 01:59N 41°49' E 140°42'0 0.0
2018-Feb-13 01:26N 41°49' E 140°42'0 0.0
2018-Feb-13 00:50N 41°49' E 140°42'0 0.0
2018-Feb-13 00:26N 41°49' E 140°42'0 0.0
2018-Feb-12 23:59N 41°49' E 140°42'0 0.0
2018-Feb-12 23:29N 41°49' E 140°42'1 2.2
2018-Feb-12 23:00N 41°48' E 140°41'1 1.7
2018-Feb-12 22:30N 41°47' E 140°42'0 0.0
2018-Feb-12 22:00N 41°47' E 140°42'0 0.0
2018-Feb-12 21:30N 41°47' E 140°42'0 0.0
2018-Feb-12 21:00N 41°47' E 140°42'0 0.0
2018-Feb-12 20:30N 41°47' E 140°42'0 0.0
2018-Feb-12 20:00N 41°47' E 140°42'0 0.0
2018-Feb-12 19:30N 41°47' E 140°42'0 0.0
2018-Feb-12 19:00N 41°47' E 140°42'0 0.0
2018-Feb-12 18:30N 41°47' E 140°42'0 0.0
2018-Feb-12 18:00N 41°47' E 140°42'0 0.0
2018-Feb-12 17:30N 41°47' E 140°42'0 0.0
2018-Feb-12 17:00N 41°47' E 140°42'0 0.1
2018-Feb-12 16:30N 41°47' E 140°42'0 0.1
2018-Feb-12 16:00N 41°47' E 140°42'0 0.0
2018-Feb-12 15:30N 41°47' E 140°42'0 0.1
2018-Feb-12 15:00N 41°47' E 140°42'0 0.1
2018-Feb-12 14:30N 41°47' E 140°42'0 0.0
2018-Feb-12 14:00N 41°47' E 140°42'0 0.0
2018-Feb-12 13:30N 41°47' E 140°42'0 0.0
2018-Feb-12 13:00N 41°47' E 140°42'0 0.0
2018-Feb-12 12:30N 41°47' E 140°42'0 0.0
2018-Feb-12 12:00N 41°47' E 140°42'0 0.0
2018-Feb-12 11:30N 41°47' E 140°42'0 0.0
2018-Feb-12 11:00N 41°47' E 140°42'0 0.0
2018-Feb-12 10:30N 41°47' E 140°42'0 0.0
2018-Feb-12 10:00N 41°47' E 140°42'0 0.0
2018-Feb-12 09:30N 41°47' E 140°42'0 0.0
2018-Feb-12 09:00N 41°47' E 140°42'0 0.1
2018-Feb-12 08:30N 41°47' E 140°42'4 7.4
2018-Feb-12 08:00N 41°43' E 140°40'611.4
2018-Feb-12 07:30N 41°38' E 140°39'611.7
2018-Feb-12 07:00N 41°32' E 140°38'611.4
2018-Feb-12 06:30N 41°26' E 140°38'4 8.8
2018-Feb-12 06:00N 41°22' E 140°39'4 7.2
2018-Feb-12 05:28N 41°18' E 140°41'3 7.6
2018-Feb-12 05:00N 41°15' E 140°43'810.0
2018-Feb-12 04:11N 41°07' E 140°44'411.4
2018-Feb-12 03:50N 41°03' E 140°45'511.3
2018-Feb-12 03:25N 40°58' E 140°45'3 0.1
2018-Feb-11 03:16N 40°55' E 140°46'1 3.1
2018-Feb-11 02:59N 40°55' E 140°47'4 0.9
2018-Feb-10 22:55N 40°52' E 140°50'3 5.1
2018-Feb-10 22:23N 40°54' E 140°47'1912.7
2018-Feb-10 20:55N 41°12' E 140°40'3812.5
2018-Feb-10 17:51N 41°31' E 139°56'  

Dump ship's entire track history